createdAt,value
2022-08-26T06:28:03.468Z,986.78
2022-08-26T06:29:04.442Z,986.77
2022-08-26T06:30:04.121Z,986.77
2022-08-26T06:31:08.371Z,986.77
2022-08-26T06:32:09.082Z,986.74
2022-08-26T06:33:09.152Z,986.76
2022-08-26T06:34:11.245Z,986.79
2022-08-26T06:35:12.585Z,986.8
2022-08-26T06:36:15.762Z,986.74
2022-08-26T06:37:15.647Z,986.74
2022-08-26T06:38:15.027Z,986.76
2022-08-26T06:39:20.689Z,986.76
2022-08-26T06:40:20.813Z,986.78
2022-08-26T06:41:23.784Z,986.78
2022-08-26T06:42:24.595Z,986.81
2022-08-26T06:43:29.072Z,986.79
2022-08-26T06:44:28.474Z,986.82
2022-08-26T06:45:31.641Z,986.8
2022-08-26T06:46:31.843Z,986.81
2022-08-26T06:47:36.171Z,986.77
2022-08-26T06:48:35.636Z,986.79
2022-08-26T06:49:40.111Z,986.76
2022-08-26T06:50:40.540Z,986.76
2022-08-26T06:51:39.918Z,986.76
2022-08-26T06:52:42.755Z,986.77
2022-08-26T06:53:45.858Z,986.79
2022-08-26T06:54:51.571Z,986.77
2022-08-26T06:55:52.179Z,986.78
2022-08-26T06:56:51.791Z,986.76
2022-08-26T06:57:54.596Z,986.82
2022-08-26T06:58:57.477Z,986.79
2022-08-26T07:00:00.720Z,986.83
2022-08-26T07:01:12.094Z,986.82
2022-08-26T07:02:05.273Z,986.78
2022-08-26T07:03:05.342Z,986.81
2022-08-26T07:04:10.864Z,986.86
2022-08-26T07:05:09.089Z,986.84
2022-08-26T07:06:09.113Z,986.82
2022-08-26T07:07:11.894Z,986.8
2022-08-26T07:08:14.696Z,986.84
2022-08-26T07:09:17.529Z,986.84
2022-08-26T07:10:20.692Z,986.84
2022-08-26T07:11:26.031Z,986.85
2022-08-26T07:12:25.335Z,986.81
2022-08-26T07:13:31.208Z,986.85
2022-08-26T07:14:27.057Z,986.86
2022-08-26T07:15:31.980Z,986.88
2022-08-26T07:16:36.666Z,986.84
2022-08-26T07:17:34.393Z,986.83
2022-08-26T07:18:34.876Z,986.84
2022-08-26T07:19:37.658Z,986.83
2022-08-26T07:20:43.229Z,986.84
2022-08-26T07:21:42.585Z,986.83
2022-08-26T07:22:45.484Z,986.85
2022-08-26T07:23:49.340Z,986.87
2022-08-26T07:24:49.202Z,986.84
2022-08-26T07:25:52.398Z,986.85
2022-08-26T07:26:55.219Z,986.88
2022-08-26T07:27:58.930Z,986.89
2022-08-26T07:29:01.838Z,986.89
2022-08-26T07:30:04.921Z,986.87
2022-08-26T07:31:09.857Z,986.91
2022-08-26T07:32:09.638Z,986.9
2022-08-26T07:33:11.306Z,986.88
2022-08-26T07:34:10.695Z,986.83
2022-08-26T07:35:13.491Z,986.81
2022-08-26T07:36:16.764Z,986.79
2022-08-26T07:37:23.206Z,986.81
2022-08-26T07:38:24.831Z,986.83
2022-08-26T07:39:24.787Z,986.81
2022-08-26T07:40:32.063Z,986.84
2022-08-26T07:42:31.422Z,986.81
2022-08-26T07:43:39.388Z,986.8
2022-08-26T07:44:36.758Z,986.8
2022-08-26T07:45:39.635Z,986.81
2022-08-26T07:46:53.396Z,986.78
2022-08-26T07:47:42.562Z,986.82
2022-08-26T07:48:50.470Z,986.79
2022-08-26T07:49:54.782Z,986.78
2022-08-26T07:50:53.248Z,986.75
2022-08-26T07:51:49.222Z,986.79
2022-08-26T07:52:53.405Z,986.8
2022-08-26T07:53:58.995Z,986.79
2022-08-26T07:55:21.148Z,986.79
2022-08-26T07:55:56.364Z,986.81
2022-08-26T07:56:59.903Z,986.8
2022-08-26T07:57:59.295Z,986.77
2022-08-26T07:59:15.095Z,986.74
2022-08-26T08:00:04.323Z,986.76
2022-08-26T08:01:07.809Z,986.75
2022-08-26T08:02:11.466Z,986.8
2022-08-26T08:03:09.749Z,986.75
2022-08-26T08:04:14.319Z,986.75
2022-08-26T08:05:11.234Z,986.78
2022-08-26T08:06:11.440Z,986.76
2022-08-26T08:07:14.334Z,986.76
2022-08-26T08:08:29.952Z,986.76
2022-08-26T08:09:22.799Z,986.76
2022-08-26T08:10:26.843Z,986.75
2022-08-26T08:11:23.023Z,986.78
2022-08-26T08:12:25.868Z,986.78
2022-08-26T08:13:29.161Z,986.74
2022-08-26T08:14:28.838Z,986.75
2022-08-26T08:15:32.942Z,986.77
2022-08-26T08:16:47.217Z,986.77
2022-08-26T08:17:33.222Z,986.75
2022-08-26T08:18:36.163Z,986.75
2022-08-26T08:19:39.599Z,986.78
2022-08-26T08:21:19.855Z,986.73
2022-08-26T08:21:42.637Z,986.74
2022-08-26T08:22:43.919Z,986.76
2022-08-26T08:23:46.069Z,986.71
2022-08-26T08:24:53.497Z,986.69
2022-08-26T08:25:51.556Z,986.74
2022-08-26T08:26:52.303Z,986.71
2022-08-26T08:27:53.407Z,986.69
2022-08-26T08:28:54.759Z,986.71
2022-08-26T08:29:54.214Z,986.69
2022-08-26T08:30:54.438Z,986.68
2022-08-26T08:32:00.214Z,986.7
2022-08-26T08:33:06.124Z,986.68
2022-08-26T08:34:05.932Z,986.67
2022-08-26T08:35:12.188Z,986.67
2022-08-26T08:36:20.519Z,986.64
2022-08-26T08:37:11.216Z,986.65
2022-08-26T08:38:12.101Z,986.63
2022-08-26T08:39:12.063Z,986.65
2022-08-26T08:40:15.235Z,986.63
2022-08-26T08:41:25.547Z,986.59
2022-08-26T08:42:24.041Z,986.55
2022-08-26T08:43:23.342Z,986.51
2022-08-26T08:45:37.177Z,986.46
2022-08-26T08:46:31.472Z,986.48
2022-08-26T08:47:31.066Z,986.46
2022-08-26T08:48:33.852Z,986.47
2022-08-26T08:49:37.053Z,986.47
2022-08-26T08:50:41.820Z,986.42
2022-08-26T08:51:44.592Z,986.47
2022-08-26T08:52:43.953Z,986.42
2022-08-26T08:53:46.937Z,986.4
2022-08-26T08:54:50.675Z,986.4
2022-08-26T08:55:50.172Z,986.35
2022-08-26T08:56:53.038Z,986.35
2022-08-26T08:58:02.764Z,986.4
2022-08-26T08:58:59.490Z,986.36
2022-08-26T09:00:00.241Z,986.37
2022-08-26T09:01:03.154Z,986.34
2022-08-26T09:02:02.442Z,986.35
2022-08-26T09:03:01.910Z,986.34
2022-08-26T09:04:04.709Z,986.32
2022-08-26T09:05:07.988Z,986.32
2022-08-26T09:06:07.877Z,986.28
2022-08-26T09:07:08.577Z,986.29
2022-08-26T09:08:12.388Z,986.27
2022-08-26T09:09:11.938Z,986.24
2022-08-26T09:10:14.718Z,986.29
2022-08-26T09:11:17.640Z,986.25
2022-08-26T09:12:20.636Z,986.23
2022-08-26T09:13:27.625Z,986.24
2022-08-26T09:14:23.518Z,986.24
2022-08-26T09:15:30.805Z,986.23
2022-08-26T09:16:27.066Z,986.25
2022-08-26T09:17:29.993Z,986.2
2022-08-26T09:18:32.946Z,986.24
2022-08-26T09:19:36.437Z,986.23
2022-08-26T09:20:37.374Z,986.19
2022-08-26T09:21:40.041Z,986.21
2022-08-26T09:22:44.460Z,986.17
2022-08-26T09:23:43.249Z,986.12
2022-08-26T09:24:49.505Z,986.15
2022-08-26T09:25:46.482Z,986.11
2022-08-26T09:26:48.373Z,986.11
2022-08-26T09:27:52.049Z,986.05
2022-08-26T09:28:54.427Z,986.1
2022-08-26T09:29:54.163Z,986.12
2022-08-26T09:30:57.243Z,986.11
2022-08-26T09:32:00.150Z,986.1
2022-08-26T09:33:10.773Z,986.09
2022-08-26T09:34:03.784Z,986.07
2022-08-26T09:35:07.250Z,986.03
2022-08-26T09:36:12.097Z,986.08
2022-08-26T09:37:13.002Z,986.08
2022-08-26T09:38:16.830Z,986.04
2022-08-26T09:39:15.009Z,986.06
2022-08-26T09:40:18.550Z,986.03
2022-08-26T09:41:21.453Z,986.03
2022-08-26T09:42:20.798Z,985.97
2022-08-26T09:43:23.595Z,985.99
2022-08-26T09:44:26.415Z,985.99
2022-08-26T09:45:30.199Z,985.97
2022-08-26T09:46:30.334Z,985.97
2022-08-26T09:47:29.848Z,985.97
2022-08-26T09:48:40.679Z,985.95
2022-08-26T09:49:36.762Z,985.9
2022-08-26T09:50:36.165Z,985.91
2022-08-26T09:51:39.243Z,985.86
2022-08-26T09:52:43.262Z,985.77
2022-08-26T09:53:42.607Z,985.71
2022-08-26T09:54:46.426Z,985.66
2022-08-26T09:55:45.765Z,985.67
2022-08-26T09:56:48.538Z,985.63
2022-08-26T09:57:51.669Z,985.61
2022-08-26T09:58:54.446Z,985.53
2022-08-26T09:59:57.284Z,985.52
2022-08-26T10:01:00.458Z,985.5
2022-08-26T10:02:13.191Z,985.46
2022-08-26T10:03:05.575Z,985.46
2022-08-26T10:04:08.998Z,985.41
2022-08-26T10:05:11.861Z,985.46
2022-08-26T10:06:15.909Z,985.47
2022-08-26T10:07:16.304Z,985.45
2022-08-26T10:08:15.996Z,985.45
2022-08-26T10:09:19.793Z,985.45
2022-08-26T10:10:19.598Z,985.45
2022-08-26T10:11:22.901Z,985.43
2022-08-26T10:12:25.717Z,985.43
2022-08-26T10:13:29.953Z,985.4
2022-08-26T10:14:30.677Z,985.43
2022-08-26T10:15:31.112Z,985.46
2022-08-26T10:16:32.975Z,985.46
2022-08-26T10:17:36.886Z,985.39
2022-08-26T10:18:37.488Z,985.41
2022-08-26T10:19:58.060Z,985.38
2022-08-26T10:20:45.501Z,985.33
2022-08-26T10:21:45.703Z,985.33
2022-08-26T10:22:47.133Z,985.28
2022-08-26T10:23:49.592Z,985.23
2022-08-26T10:24:55.535Z,985.22
2022-08-26T10:25:52.567Z,985.24
2022-08-26T10:26:51.854Z,985.23
2022-08-26T10:27:55.676Z,985.23
2022-08-26T10:28:55.025Z,985.26
2022-08-26T10:29:58.038Z,985.23
2022-08-26T10:31:00.852Z,985.24
2022-08-26T10:32:14.577Z,985.2
2022-08-26T10:33:03.673Z,985.23
2022-08-26T10:34:06.455Z,985.25
2022-08-26T10:35:09.283Z,985.2
2022-08-26T10:36:20.516Z,985.17
2022-08-26T10:37:16.927Z,985.19
2022-08-26T10:38:14.184Z,985.16
2022-08-26T10:39:17.336Z,985.2
2022-08-26T10:40:38.297Z,985.17
2022-08-26T10:41:22.995Z,985.16
2022-08-26T10:42:23.474Z,985.18
2022-08-26T10:43:26.812Z,985.14
2022-08-26T10:44:26.099Z,985.06
2022-08-26T10:45:29.507Z,985.11
2022-08-26T10:46:29.009Z,985.09
2022-08-26T10:47:31.811Z,985.09
2022-08-26T10:48:36.570Z,985.12
2022-08-26T10:49:35.880Z,985.08
2022-08-26T10:50:42.655Z,985.08
2022-08-26T10:51:41.946Z,985.02
2022-08-26T10:52:45.299Z,985.03
2022-08-26T10:53:52.357Z,984.99
2022-08-26T10:54:48.598Z,985
2022-08-26T10:55:54.327Z,984.99
2022-08-26T10:56:58.029Z,984.98
2022-08-26T10:57:54.331Z,984.97
2022-08-26T10:58:57.155Z,984.95
2022-08-26T10:59:59.932Z,984.94
2022-08-26T11:01:22.650Z,984.89
2022-08-26T11:02:06.957Z,984.87
2022-08-26T11:03:23.149Z,984.84
2022-08-26T11:04:09.361Z,984.82
2022-08-26T11:05:09.124Z,984.85
2022-08-26T11:06:13.027Z,984.82
2022-08-26T11:07:12.342Z,984.76
2022-08-26T11:08:15.820Z,984.77
2022-08-26T11:09:17.234Z,984.74
2022-08-26T11:10:20.007Z,984.72
2022-08-26T11:11:23.609Z,984.64
2022-08-26T11:12:24.943Z,984.7
2022-08-26T11:13:24.234Z,984.65
2022-08-26T11:14:46.243Z,984.71
2022-08-26T11:15:28.030Z,984.7
2022-08-26T11:16:28.042Z,984.65
2022-08-26T11:17:27.507Z,984.69
2022-08-26T11:18:31.739Z,984.66
2022-08-26T11:20:04.676Z,984.69
2022-08-26T11:20:35.038Z,984.71
2022-08-26T11:21:36.901Z,984.75
2022-08-26T11:22:36.676Z,984.71
2022-08-26T11:23:43.224Z,984.75
2022-08-26T11:24:42.614Z,984.86
2022-08-26T11:25:46.027Z,984.84
2022-08-26T11:26:57.003Z,984.8
2022-08-26T11:27:49.797Z,984.76
2022-08-26T11:28:53.525Z,984.79
2022-08-26T11:29:56.416Z,984.69
2022-08-26T11:30:58.699Z,984.72
2022-08-26T11:31:58.997Z,984.75
2022-08-26T11:32:58.775Z,984.73
2022-08-26T11:34:02.886Z,984.83
2022-08-26T11:35:02.190Z,984.78
2022-08-26T11:36:12.724Z,984.8
2022-08-26T11:37:06.174Z,984.82
2022-08-26T11:38:06.032Z,984.79
2022-08-26T11:39:10.584Z,984.76
2022-08-26T11:40:11.055Z,984.77
2022-08-26T11:41:10.452Z,984.74
2022-08-26T11:42:11.061Z,984.69
2022-08-26T11:43:14.005Z,984.72
2022-08-26T11:44:17.798Z,984.76
2022-08-26T11:45:17.330Z,984.75
2022-08-26T11:46:20.207Z,984.74
2022-08-26T11:47:24.781Z,984.75
2022-08-26T11:48:24.467Z,984.69
2022-08-26T11:49:24.246Z,984.68
2022-08-26T11:50:27.038Z,984.7
2022-08-26T11:51:34.983Z,984.71
2022-08-26T11:52:33.931Z,984.65
2022-08-26T11:53:33.615Z,984.69
2022-08-26T11:54:36.440Z,984.62
2022-08-26T11:55:39.477Z,984.7
2022-08-26T11:56:42.297Z,984.73
2022-08-26T11:57:45.100Z,984.75
2022-08-26T11:58:47.865Z,984.77
2022-08-26T11:59:50.967Z,984.78
2022-08-26T12:00:56.097Z,984.76
2022-08-26T12:01:55.710Z,984.76
2022-08-26T12:02:58.558Z,984.8
2022-08-26T12:04:02.276Z,984.77
2022-08-26T12:05:02.281Z,984.73
2022-08-26T12:06:05.046Z,984.68
2022-08-26T12:07:08.933Z,984.73
2022-08-26T12:08:10.402Z,984.7
2022-08-26T12:09:10.706Z,984.73
2022-08-26T12:10:13.505Z,984.72
2022-08-26T12:11:16.322Z,984.71
2022-08-26T12:12:19.602Z,984.74
2022-08-26T12:13:22.597Z,984.76
2022-08-26T12:14:28.074Z,984.71
2022-08-26T12:15:30.496Z,984.7
2022-08-26T12:16:30.554Z,984.73
2022-08-26T12:17:30.485Z,984.72
2022-08-26T12:18:34.000Z,984.69
2022-08-26T12:19:33.699Z,984.7
2022-08-26T12:20:36.532Z,984.68
2022-08-26T12:21:38.125Z,984.68
2022-08-26T12:22:37.912Z,984.75
2022-08-26T12:23:40.781Z,984.65
2022-08-26T12:24:43.603Z,984.65
2022-08-26T12:25:48.289Z,984.7
2022-08-26T12:26:47.607Z,984.68
2022-08-26T12:27:54.327Z,984.68
2022-08-26T12:28:53.670Z,984.69
2022-08-26T12:29:56.504Z,984.68
2022-08-26T12:31:01.217Z,984.65
2022-08-26T12:32:00.865Z,984.59
2022-08-26T12:33:23.472Z,984.62
2022-08-26T12:34:05.431Z,984.57
2022-08-26T12:35:08.308Z,984.61
2022-08-26T12:36:14.913Z,984.58
2022-08-26T12:37:25.745Z,984.57
2022-08-26T12:38:18.689Z,984.54
2022-08-26T12:39:17.990Z,984.53
2022-08-26T12:40:25.315Z,984.56
2022-08-26T12:41:23.218Z,984.49
2022-08-26T12:42:26.064Z,984.49
2022-08-26T12:43:33.769Z,984.47
2022-08-26T12:44:29.983Z,984.45
2022-08-26T12:45:33.298Z,984.4
2022-08-26T12:46:36.227Z,984.43
2022-08-26T12:47:44.564Z,984.39
2022-08-26T12:48:40.392Z,984.41
2022-08-26T12:49:43.198Z,984.43
2022-08-26T12:50:46.009Z,984.36
2022-08-26T12:51:48.783Z,984.33
2022-08-26T12:52:51.578Z,984.35
2022-08-26T12:53:54.362Z,984.41
2022-08-26T12:54:57.512Z,984.35
2022-08-26T12:56:00.354Z,984.33
2022-08-26T12:57:03.143Z,984.36
2022-08-26T12:58:06.272Z,984.37
2022-08-26T12:59:16.449Z,984.37
2022-08-26T13:00:12.348Z,984.34
2022-08-26T13:01:15.629Z,984.32
2022-08-26T13:02:18.762Z,984.25
2022-08-26T13:03:25.314Z,984.25
2022-08-26T13:04:24.672Z,984.21
2022-08-26T13:05:27.447Z,984.25
2022-08-26T13:06:30.325Z,984.23
2022-08-26T13:07:33.104Z,984.21
2022-08-26T13:08:35.871Z,984.22
2022-08-26T13:09:38.673Z,984.17
2022-08-26T13:10:41.467Z,984.19
2022-08-26T13:11:44.261Z,984.13
2022-08-26T13:12:47.070Z,984.13
2022-08-26T13:13:50.035Z,984.05
2022-08-26T13:14:52.840Z,984.08
2022-08-26T13:15:59.135Z,984.05
2022-08-26T13:16:55.873Z,984.05
2022-08-26T13:18:02.270Z,984.08
2022-08-26T13:19:01.594Z,984.05
2022-08-26T13:20:06.950Z,984.05
2022-08-26T13:21:06.243Z,984.02
2022-08-26T13:22:09.038Z,984.01
2022-08-26T13:23:12.977Z,983.97
2022-08-26T13:24:12.592Z,983.94
2022-08-26T13:25:20.037Z,983.87
2022-08-26T13:26:15.896Z,983.84
2022-08-26T13:27:18.734Z,983.87
2022-08-26T13:28:21.495Z,983.88
2022-08-26T13:29:24.962Z,983.83
2022-08-26T13:30:25.491Z,983.87
2022-08-26T13:31:27.634Z,983.87
2022-08-26T13:32:28.290Z,983.81
2022-08-26T13:33:28.620Z,983.85
2022-08-26T13:34:28.104Z,983.88
2022-08-26T13:35:30.893Z,983.9
2022-08-26T13:36:33.687Z,983.89
2022-08-26T13:37:36.454Z,983.88
2022-08-26T13:38:39.243Z,983.87
2022-08-26T13:39:42.071Z,983.85
2022-08-26T13:40:44.878Z,983.87
2022-08-26T13:41:47.670Z,983.86
2022-08-26T13:42:50.458Z,983.86
2022-08-26T13:43:53.247Z,983.83
2022-08-26T13:44:56.011Z,983.84
2022-08-26T13:45:58.797Z,983.85
2022-08-26T13:47:01.597Z,983.82
2022-08-26T13:48:04.416Z,983.82
2022-08-26T13:49:07.200Z,983.82
2022-08-26T13:50:09.993Z,983.78
2022-08-26T13:51:12.804Z,983.83
2022-08-26T13:52:15.631Z,983.83
2022-08-26T13:53:18.465Z,983.76
2022-08-26T13:54:21.328Z,983.83
2022-08-26T13:55:24.193Z,983.87
2022-08-26T13:56:27.015Z,983.89
2022-08-26T13:57:30.189Z,983.87
2022-08-26T13:58:33.180Z,983.88
2022-08-26T13:59:38.920Z,983.85
2022-08-26T14:00:36.611Z,983.87
2022-08-26T14:01:39.460Z,983.87
2022-08-26T14:02:42.304Z,983.83
2022-08-26T14:03:45.722Z,983.78
2022-08-26T14:04:45.188Z,983.74
2022-08-26T14:05:48.011Z,983.77
2022-08-26T14:06:50.784Z,983.73
2022-08-26T14:07:53.580Z,983.72
2022-08-26T14:08:56.378Z,983.71
2022-08-26T14:09:59.167Z,983.72
2022-08-26T14:11:01.972Z,983.74
2022-08-26T14:12:04.749Z,983.74
2022-08-26T14:13:11.600Z,983.72
2022-08-26T14:14:10.920Z,983.72
2022-08-26T14:15:13.742Z,983.73
2022-08-26T14:16:26.200Z,983.69
2022-08-26T14:17:19.943Z,983.7
2022-08-26T14:18:28.353Z,983.69
2022-08-26T14:19:24.800Z,983.69
2022-08-26T14:20:27.591Z,983.75
2022-08-26T14:21:30.361Z,983.71
2022-08-26T14:22:33.123Z,983.68
2022-08-26T14:23:35.882Z,983.75
2022-08-26T14:24:38.676Z,983.78
2022-08-26T14:25:41.472Z,983.75
2022-08-26T14:26:44.270Z,983.76
2022-08-26T14:27:47.071Z,983.81
2022-08-26T14:28:49.838Z,983.77
2022-08-26T14:29:52.699Z,983.75
2022-08-26T14:30:55.751Z,983.77
2022-08-26T14:31:58.628Z,983.77
2022-08-26T14:33:01.412Z,983.77
2022-08-26T14:34:04.197Z,983.77
2022-08-26T14:35:06.960Z,983.79
2022-08-26T14:36:09.789Z,983.78
2022-08-26T14:37:15.825Z,983.83
2022-08-26T14:38:15.113Z,983.88
2022-08-26T14:39:17.911Z,983.89
2022-08-26T14:40:21.160Z,983.89
2022-08-26T14:41:24.132Z,983.94
2022-08-26T14:42:31.946Z,983.96
2022-08-26T14:43:27.769Z,983.96
2022-08-26T14:44:30.559Z,983.99
2022-08-26T14:45:33.645Z,984.02
2022-08-26T14:46:36.906Z,984.03
2022-08-26T14:47:43.043Z,984.03
2022-08-26T14:48:42.505Z,984.01
2022-08-26T14:49:45.341Z,984
2022-08-26T14:50:48.122Z,984
2022-08-26T14:51:50.950Z,983.98
2022-08-26T14:52:53.744Z,983.95
2022-08-26T14:53:56.550Z,983.92
2022-08-26T14:54:59.358Z,983.86
2022-08-26T14:56:02.153Z,983.82
2022-08-26T14:57:04.990Z,983.82
2022-08-26T14:58:08.641Z,983.8
2022-08-26T14:59:08.074Z,983.77
2022-08-26T15:00:10.856Z,983.83
2022-08-26T15:01:13.647Z,983.78
2022-08-26T15:02:34.564Z,983.78
2022-08-26T15:04:19.376Z,983.72
2022-08-26T15:05:22.171Z,983.7
2022-08-26T15:06:24.986Z,983.68
2022-08-26T15:07:27.789Z,983.66
2022-08-26T15:08:30.589Z,983.68
2022-08-26T15:09:33.386Z,983.7
2022-08-26T15:10:36.218Z,983.72
2022-08-26T15:11:39.023Z,983.75
2022-08-26T15:12:41.839Z,983.77
2022-08-26T15:13:44.606Z,983.8
2022-08-26T15:14:47.371Z,983.83
2022-08-26T15:15:50.531Z,983.83
2022-08-26T15:16:53.401Z,983.87
2022-08-26T15:17:56.217Z,983.87
2022-08-26T15:18:59.165Z,983.94
2022-08-26T15:20:01.949Z,983.93
2022-08-26T15:21:04.769Z,984.01
2022-08-26T15:22:07.539Z,984.03
2022-08-26T15:23:11.703Z,984.12
2022-08-26T15:24:11.269Z,984.09
2022-08-26T15:25:14.070Z,984.14
2022-08-26T15:26:16.853Z,984.13
2022-08-26T15:27:19.622Z,984.15
2022-08-26T15:28:22.642Z,984.13
2022-08-26T15:29:25.421Z,984.14
2022-08-26T15:30:28.179Z,984.12
2022-08-26T15:31:31.407Z,984.17
2022-08-26T15:32:34.263Z,984.16
2022-08-26T15:33:37.209Z,984.14
2022-08-26T15:34:39.997Z,984.16
2022-08-26T15:35:43.371Z,984.15
2022-08-26T15:36:46.489Z,984.16
2022-08-26T15:37:56.689Z,984.13
2022-08-26T15:38:52.548Z,984.15
2022-08-26T15:39:55.636Z,984.11
2022-08-26T15:41:03.475Z,984.14
2022-08-26T15:41:59.317Z,984.11
2022-08-26T15:43:29.400Z,984.13
2022-08-26T15:44:04.414Z,984.08
2022-08-26T15:45:07.180Z,984.08
2022-08-26T15:46:10.203Z,984.08
2022-08-26T15:47:13.084Z,984.01
2022-08-26T15:48:16.746Z,984.01
2022-08-26T15:49:19.111Z,983.97
2022-08-26T15:50:18.417Z,983.96
2022-08-26T15:51:22.778Z,983.91
2022-08-26T15:52:22.158Z,983.87
2022-08-26T15:53:24.935Z,983.9
2022-08-26T15:54:27.734Z,983.88
2022-08-26T15:55:30.575Z,983.85
2022-08-26T15:56:30.645Z,983.85
2022-08-26T15:57:33.440Z,983.87
2022-08-26T15:58:36.582Z,983.88
2022-08-26T15:59:39.380Z,983.89
2022-08-26T16:00:42.275Z,983.89
2022-08-26T16:01:45.356Z,983.94
2022-08-26T16:02:48.179Z,983.97
2022-08-26T16:03:50.969Z,984.01
2022-08-26T16:04:54.644Z,984.01
2022-08-26T16:05:54.387Z,984.09
2022-08-26T16:06:57.333Z,984.15
2022-08-26T16:08:00.176Z,984.21
2022-08-26T16:09:02.955Z,984.31
2022-08-26T16:10:05.807Z,984.37
2022-08-26T16:11:08.577Z,984.37
2022-08-26T16:13:15.689Z,984.57
2022-08-26T16:14:15.187Z,984.61
2022-08-26T16:15:18.019Z,984.63
2022-08-26T16:17:24.118Z,984.68
2022-08-26T16:18:26.611Z,984.71
2022-08-26T16:19:50.179Z,984.75
2022-08-26T16:21:30.829Z,984.72
2022-08-26T16:23:01.849Z,984.78
2022-08-26T16:23:34.556Z,984.83
2022-08-26T16:24:39.862Z,984.9
2022-08-26T16:25:36.022Z,984.93
2022-08-26T16:26:46.285Z,984.96
2022-08-26T16:27:43.381Z,984.96
2022-08-26T22:13:12.237Z,987.09
2022-08-26T22:13:17.206Z,987.13
2022-08-26T22:14:20.190Z,987.05
2022-08-26T22:15:28.788Z,987.1
2022-08-26T22:16:35.186Z,987.1
2022-08-26T22:17:25.307Z,987.09
2022-08-26T22:18:28.295Z,987.12
2022-08-26T22:19:47.044Z,987.09
2022-08-26T22:20:33.021Z,987.08
2022-08-26T22:21:36.631Z,987.05
2022-08-26T22:23:00.462Z,987.06
2022-08-26T22:23:39.371Z,987.03
2022-08-26T22:24:42.819Z,987.06
2022-08-26T22:25:45.019Z,987.09
2022-08-26T22:26:48.958Z,987.07
2022-08-26T22:27:48.286Z,987.11
2022-08-26T22:28:59.606Z,987.08
2022-08-26T22:29:51.983Z,987.12
2022-08-26T22:30:54.784Z,987.15
2022-08-26T22:31:58.108Z,987.12
2022-08-26T22:33:01.031Z,987.16
2022-08-26T22:34:03.822Z,987.2
2022-08-26T22:35:29.919Z,987.2
2022-08-26T22:36:08.400Z,987.18
2022-08-26T22:37:11.153Z,987.2
2022-08-26T22:38:13.917Z,987.2
2022-08-26T22:39:16.696Z,987.2
2022-08-26T22:40:21.327Z,987.17
2022-08-26T22:41:20.769Z,987.18
2022-08-26T22:42:23.530Z,987.19
2022-08-26T22:43:26.295Z,987.29
2022-08-26T22:44:29.066Z,987.31
2022-08-26T22:45:43.438Z,987.38
2022-08-26T22:46:32.384Z,987.38
2022-08-26T22:47:37.390Z,987.37
2022-08-26T22:48:37.677Z,987.41
2022-08-26T22:49:40.495Z,987.43
2022-08-26T22:50:43.280Z,987.47
2022-08-26T22:51:46.091Z,987.46
2022-08-26T22:52:48.882Z,987.46
2022-08-26T22:53:51.654Z,987.43
2022-08-26T22:54:54.434Z,987.45
2022-08-26T22:55:57.217Z,987.47
2022-08-26T22:57:00.012Z,987.48
2022-08-26T22:58:02.968Z,987.5
2022-08-26T22:59:05.824Z,987.55
2022-08-26T23:00:11.577Z,987.53
2022-08-26T23:01:11.203Z,987.53
2022-08-26T23:02:14.061Z,987.52
2022-08-26T23:03:17.162Z,987.54
2022-08-26T23:04:20.101Z,987.53
2022-08-26T23:05:22.865Z,987.54
2022-08-26T23:06:25.716Z,987.55
2022-08-26T23:07:28.512Z,987.55
2022-08-26T23:08:31.267Z,987.53
2022-08-26T23:09:34.053Z,987.54
2022-08-26T23:10:36.833Z,987.5
2022-08-26T23:11:42.599Z,987.55
2022-08-26T23:12:41.922Z,987.53
2022-08-26T23:13:44.716Z,987.49
2022-08-26T23:14:47.501Z,987.5
2022-08-26T23:15:50.303Z,987.48
2022-08-26T23:16:53.746Z,987.47
2022-08-26T23:17:59.287Z,987.45
2022-08-26T23:18:55.147Z,987.4
2022-08-26T23:19:57.933Z,987.4
2022-08-26T23:21:00.723Z,987.35
2022-08-26T23:22:03.495Z,987.44
2022-08-26T23:23:06.283Z,987.34
2022-08-26T23:24:09.099Z,987.38
2022-08-26T23:25:12.042Z,987.37
2022-08-26T23:26:18.094Z,987.36
2022-08-26T23:27:17.408Z,987.37
2022-08-26T23:28:20.185Z,987.36
2022-08-26T23:29:22.967Z,987.33
2022-08-26T23:30:25.729Z,987.29
2022-08-26T23:31:39.274Z,987.34
2022-08-26T23:32:29.643Z,987.32
2022-08-26T23:33:32.427Z,987.33
2022-08-26T23:34:35.210Z,987.29
2022-08-26T23:35:35.276Z,987.28
2022-08-26T23:36:38.058Z,987.26
2022-08-26T23:37:41.322Z,987.24
2022-08-26T23:38:44.116Z,987.26
2022-08-26T23:39:44.447Z,987.23
2022-08-26T23:40:47.271Z,987.25
2022-08-26T23:41:50.025Z,987.25
2022-08-26T23:42:52.781Z,987.24
2022-08-26T23:43:55.535Z,987.26
2022-08-26T23:44:58.283Z,987.24
2022-08-26T23:46:01.283Z,987.23
2022-08-26T23:47:04.113Z,987.22
2022-08-26T23:48:07.356Z,987.25
2022-08-26T23:49:10.170Z,987.24
2022-08-26T23:50:12.931Z,987.24
2022-08-26T23:51:15.726Z,987.32
2022-08-26T23:52:18.544Z,987.29
2022-08-26T23:53:21.327Z,987.27
2022-08-26T23:54:24.088Z,987.28
2022-08-26T23:55:26.842Z,987.21
2022-08-26T23:56:29.628Z,987.2
2022-08-26T23:57:32.384Z,987.27
2022-08-26T23:58:35.133Z,987.23
2022-08-26T23:59:37.907Z,987.24
